createdAt,value
2023-05-04T00:00:24.821Z,1025.65
2023-05-04T00:01:29.106Z,1025.61
2023-05-04T00:02:33.481Z,1025.60
2023-05-04T00:03:37.808Z,1025.59
2023-05-04T00:04:41.785Z,1025.58
2023-05-04T00:05:45.981Z,1025.59
2023-05-04T00:06:50.273Z,1025.60
2023-05-04T00:07:54.498Z,1025.59
2023-05-04T00:08:58.668Z,1025.58
2023-05-04T00:10:03.432Z,1025.59
2023-05-04T00:11:07.110Z,1025.60
2023-05-04T00:12:11.303Z,1025.59
2023-05-04T00:13:15.707Z,1025.58
2023-05-04T00:14:19.854Z,1025.57
2023-05-04T00:15:24.031Z,1025.57
2023-05-04T00:16:28.241Z,1025.56
2023-05-04T00:17:32.509Z,1025.57
2023-05-04T00:18:36.678Z,1025.52
2023-05-04T00:19:40.901Z,1025.51
2023-05-04T00:20:45.319Z,1025.49
2023-05-04T00:21:49.407Z,1025.47
2023-05-04T00:22:53.741Z,1025.46
2023-05-04T00:23:57.904Z,1025.46
2023-05-04T00:25:02.164Z,1025.46
2023-05-04T00:26:06.393Z,1025.46
2023-05-04T00:27:10.600Z,1025.46
2023-05-04T00:28:14.879Z,1025.45
2023-05-04T00:29:19.057Z,1025.46
2023-05-04T00:30:23.251Z,1025.43
2023-05-04T00:31:27.550Z,1025.42
2023-05-04T00:32:31.797Z,1025.40
2023-05-04T00:33:35.943Z,1025.40
2023-05-04T00:34:40.252Z,1025.38
2023-05-04T00:35:47.422Z,1025.39
2023-05-04T00:36:50.749Z,1025.36
2023-05-04T00:37:54.928Z,1025.37
2023-05-04T00:38:59.157Z,1025.37
2023-05-04T00:40:03.675Z,1025.36
2023-05-04T00:41:07.603Z,1025.39
2023-05-04T00:42:11.837Z,1025.38
2023-05-04T00:43:16.171Z,1025.36
2023-05-04T00:44:20.381Z,1025.35
2023-05-04T00:45:24.673Z,1025.34
2023-05-04T00:46:28.862Z,1025.35
2023-05-04T00:47:33.122Z,1025.36
2023-05-04T00:48:37.323Z,1025.35
2023-05-04T00:49:41.548Z,1025.35
2023-05-04T00:50:45.784Z,1025.35
2023-05-04T00:51:49.963Z,1025.33
2023-05-04T00:52:54.229Z,1025.32
2023-05-04T00:53:58.509Z,1025.32
2023-05-04T00:55:02.698Z,1025.32
2023-05-04T00:56:07.099Z,1025.31
2023-05-04T00:57:11.224Z,1025.32
2023-05-04T00:58:15.504Z,1025.33
2023-05-04T00:59:19.693Z,1025.31
2023-05-04T01:00:23.898Z,1025.31
2023-05-04T01:01:28.204Z,1025.30
2023-05-04T01:02:32.394Z,1025.28
2023-05-04T01:03:36.741Z,1025.25
2023-05-04T01:04:40.884Z,1025.24
2023-05-04T01:05:45.097Z,1025.24
2023-05-04T01:06:49.287Z,1025.23
2023-05-04T01:07:53.512Z,1025.24
2023-05-04T01:08:57.794Z,1025.23
2023-05-04T01:10:16.045Z,1025.21
2023-05-04T01:11:19.254Z,1025.18
2023-05-04T01:12:23.488Z,1025.20
2023-05-04T01:13:27.676Z,1025.20
2023-05-04T01:14:31.815Z,1025.20
2023-05-04T01:15:36.133Z,1025.23
2023-05-04T01:16:40.418Z,1025.22
2023-05-04T01:17:44.573Z,1025.22
2023-05-04T01:18:48.764Z,1025.22
2023-05-04T01:19:52.956Z,1025.24
2023-05-04T01:20:57.144Z,1025.24
2023-05-04T01:22:01.410Z,1025.26
2023-05-04T01:23:05.578Z,1025.30
2023-05-04T01:24:09.968Z,1025.30
2023-05-04T01:25:14.021Z,1025.29
2023-05-04T01:26:18.204Z,1025.31
2023-05-04T01:27:22.416Z,1025.31
2023-05-04T01:28:26.694Z,1025.30
2023-05-04T01:29:30.974Z,1025.32
2023-05-04T01:30:35.147Z,1025.30
2023-05-04T01:31:39.344Z,1025.32
2023-05-04T01:32:43.528Z,1025.33
2023-05-04T01:33:47.745Z,1025.29
2023-05-04T01:34:52.049Z,1025.28
2023-05-04T01:35:56.267Z,1025.24
2023-05-04T01:37:00.511Z,1025.23
2023-05-04T01:38:04.667Z,1025.22
2023-05-04T01:39:08.876Z,1025.22
2023-05-04T01:40:16.195Z,1025.19
2023-05-04T01:41:19.397Z,1025.18
2023-05-04T01:42:23.592Z,1025.17
2023-05-04T01:43:27.804Z,1025.16
2023-05-04T01:44:31.995Z,1025.21
2023-05-04T01:45:36.215Z,1025.19
2023-05-04T01:46:40.448Z,1025.21
2023-05-04T01:47:44.806Z,1025.23
2023-05-04T01:48:48.858Z,1025.25
2023-05-04T01:49:53.164Z,1025.26
2023-05-04T01:50:57.349Z,1025.25
2023-05-04T01:52:01.654Z,1025.27
2023-05-04T01:53:05.808Z,1025.24
2023-05-04T01:54:09.968Z,1025.22
2023-05-04T01:55:14.310Z,1025.25
2023-05-04T01:56:18.622Z,1025.25
2023-05-04T01:57:22.687Z,1025.24
2023-05-04T01:58:26.911Z,1025.23
2023-05-04T01:59:31.116Z,1025.21
2023-05-04T02:00:35.334Z,1025.20
2023-05-04T02:01:39.549Z,1025.21
2023-05-04T02:02:44.013Z,1025.19
2023-05-04T02:03:48.093Z,1025.20
2023-05-04T02:04:52.220Z,1025.16
2023-05-04T02:05:56.475Z,1025.14
2023-05-04T02:07:00.700Z,1025.13
2023-05-04T02:08:04.939Z,1025.12
2023-05-04T02:09:09.127Z,1025.13
2023-05-04T02:10:13.509Z,1025.12
2023-05-04T02:11:17.743Z,1025.10
2023-05-04T02:12:21.919Z,1025.10
2023-05-04T02:13:26.196Z,1025.07
2023-05-04T02:14:30.399Z,1025.09
2023-05-04T02:15:34.603Z,1025.08
2023-05-04T02:16:38.959Z,1025.08
2023-05-04T02:17:43.231Z,1025.11
2023-05-04T02:18:47.278Z,1025.10
2023-05-04T02:19:51.608Z,1025.10
2023-05-04T02:20:55.858Z,1025.11
2023-05-04T02:27:46.337Z,1025.16
2023-05-04T02:28:49.356Z,1025.15
2023-05-04T02:29:53.484Z,1025.16
2023-05-04T02:30:57.750Z,1025.16
2023-05-04T02:32:02.062Z,1025.19
2023-05-04T02:33:06.133Z,1025.19
2023-05-04T02:34:10.388Z,1025.20
2023-05-04T02:35:14.521Z,1025.20
2023-05-04T02:36:18.774Z,1025.17
2023-05-04T02:37:23.019Z,1025.16
2023-05-04T02:38:27.179Z,1025.16
2023-05-04T02:39:31.368Z,1025.15
2023-05-04T02:40:35.595Z,1025.15
2023-05-04T02:41:39.818Z,1025.17
2023-05-04T02:42:44.171Z,1025.18
2023-05-04T02:43:51.379Z,1025.17
2023-05-04T02:44:54.608Z,1025.17
2023-05-04T02:45:58.874Z,1025.18
2023-05-04T02:47:03.036Z,1025.16
2023-05-04T02:48:07.355Z,1025.14
2023-05-04T02:49:11.521Z,1025.14
2023-05-04T02:50:15.744Z,1025.13
2023-05-04T02:51:20.041Z,1025.13
2023-05-04T02:52:24.315Z,1025.15
2023-05-04T02:53:28.468Z,1025.15
2023-05-04T02:54:32.637Z,1025.15
2023-05-04T02:55:36.870Z,1025.15
2023-05-04T02:56:41.057Z,1025.13
2023-05-04T02:57:45.264Z,1025.13
2023-05-04T02:58:49.568Z,1025.11
2023-05-04T02:59:53.738Z,1025.10
2023-05-04T03:00:57.983Z,1025.09
2023-05-04T03:02:02.114Z,1025.05
2023-05-04T03:03:06.391Z,1025.03
2023-05-04T03:04:10.513Z,1025.03
2023-05-04T03:05:14.687Z,1025.03
2023-05-04T03:06:18.908Z,1025.00
2023-05-04T03:07:23.058Z,1025.01
2023-05-04T03:08:27.377Z,1025.02
2023-05-04T03:09:31.587Z,1025.01
2023-05-04T03:10:35.787Z,1025.01
2023-05-04T03:11:39.945Z,1025.02
2023-05-04T03:12:44.287Z,1025.02
2023-05-04T03:13:48.459Z,1025.00
2023-05-04T03:14:52.594Z,1025.02
2023-05-04T03:15:56.876Z,1025.03
2023-05-04T03:17:00.952Z,1025.05
2023-05-04T03:18:05.158Z,1025.06
2023-05-04T03:19:09.315Z,1025.05
2023-05-04T03:20:13.559Z,1025.07
2023-05-04T03:21:17.772Z,1025.09
2023-05-04T03:22:21.984Z,1025.08
2023-05-04T03:23:26.223Z,1025.10
2023-05-04T03:24:30.522Z,1025.09
2023-05-04T03:25:34.792Z,1025.07
2023-05-04T03:26:38.978Z,1025.05
2023-05-04T03:27:43.116Z,1025.06
2023-05-04T03:28:47.396Z,1025.07
2023-05-04T03:29:51.641Z,1025.07
2023-05-04T03:30:55.823Z,1025.06
2023-05-04T03:32:00.230Z,1025.04
2023-05-04T03:33:04.304Z,1025.02
2023-05-04T03:34:08.480Z,1025.03
2023-05-04T03:35:12.868Z,1025.03
2023-05-04T03:36:16.928Z,1025.03
2023-05-04T03:37:21.232Z,1025.00
2023-05-04T03:38:25.361Z,1024.98
2023-05-04T03:39:29.575Z,1024.97
2023-05-04T03:40:33.767Z,1024.97
2023-05-04T03:41:37.953Z,1024.97
2023-05-04T03:42:42.144Z,1024.97
2023-05-04T03:43:46.363Z,1024.98
2023-05-04T03:44:50.547Z,1024.97
2023-05-04T03:45:54.881Z,1024.98
2023-05-04T03:46:59.023Z,1024.99
2023-05-04T03:48:03.348Z,1024.97
2023-05-04T03:49:07.496Z,1024.93
2023-05-04T03:50:11.699Z,1024.95
2023-05-04T03:51:15.880Z,1024.96
2023-05-04T03:52:20.091Z,1024.98
2023-05-04T03:53:24.316Z,1025.02
2023-05-04T03:54:28.490Z,1025.01
2023-05-04T03:55:32.683Z,1024.99
2023-05-04T03:56:36.970Z,1025.01
2023-05-04T03:57:47.204Z,1025.01
2023-05-04T03:58:50.050Z,1025.03
2023-05-04T03:59:57.020Z,1025.05
2023-05-04T04:00:58.374Z,1025.05
2023-05-04T04:02:02.683Z,1025.09
2023-05-04T04:03:07.034Z,1025.06
2023-05-04T04:04:11.149Z,1025.07
2023-05-04T04:05:15.290Z,1025.07
2023-05-04T04:06:19.479Z,1025.04
2023-05-04T04:07:23.739Z,1025.05
2023-05-04T04:08:27.899Z,1025.01
2023-05-04T04:09:32.170Z,1025.01
2023-05-04T04:10:36.372Z,1025.01
2023-05-04T04:11:40.577Z,1024.98
2023-05-04T04:12:44.842Z,1024.96
2023-05-04T04:13:48.942Z,1024.97
2023-05-04T04:14:53.077Z,1024.96
2023-05-04T04:15:57.343Z,1024.99
2023-05-04T04:17:01.491Z,1024.99
2023-05-04T04:18:05.978Z,1024.99
2023-05-04T04:19:10.010Z,1024.98
2023-05-04T04:20:14.157Z,1024.99
2023-05-04T04:21:18.333Z,1024.99
2023-05-04T04:22:22.559Z,1024.99
2023-05-04T04:23:26.836Z,1025.01
2023-05-04T04:24:31.037Z,1025.03
2023-05-04T04:25:35.244Z,1025.03
2023-05-04T04:26:39.535Z,1025.04
2023-05-04T04:27:43.652Z,1025.04
2023-05-04T04:28:47.888Z,1025.06
2023-05-04T04:29:52.064Z,1025.05
2023-05-04T04:30:56.363Z,1025.09
2023-05-04T04:32:00.640Z,1025.11
2023-05-04T04:33:04.795Z,1025.16
2023-05-04T04:34:09.006Z,1025.18
2023-05-04T04:35:13.217Z,1025.20
2023-05-04T04:36:17.384Z,1025.21
2023-05-04T04:37:21.719Z,1025.23
2023-05-04T04:38:25.802Z,1025.27
2023-05-04T04:39:30.034Z,1025.30
2023-05-04T04:40:34.223Z,1025.30
2023-05-04T04:41:38.447Z,1025.29
2023-05-04T04:42:42.739Z,1025.30
2023-05-04T04:43:46.927Z,1025.31
2023-05-04T04:44:51.260Z,1025.32
2023-05-04T04:45:55.385Z,1025.33
2023-05-04T04:46:59.789Z,1025.31
2023-05-04T04:48:03.929Z,1025.33
2023-05-04T04:49:08.131Z,1025.32
2023-05-04T04:50:12.319Z,1025.31
2023-05-04T04:51:19.598Z,1025.30
2023-05-04T04:52:22.818Z,1025.28
2023-05-04T04:53:27.089Z,1025.29
2023-05-04T04:54:31.262Z,1025.28
2023-05-04T04:55:35.455Z,1025.30
2023-05-04T04:56:39.697Z,1025.26
2023-05-04T04:57:43.966Z,1025.26
2023-05-04T04:58:48.101Z,1025.23
2023-05-04T04:59:52.316Z,1025.21
2023-05-04T05:00:56.677Z,1025.20
2023-05-04T05:02:00.818Z,1025.18
2023-05-04T05:03:05.075Z,1025.16
2023-05-04T05:04:09.193Z,1025.15
2023-05-04T05:05:13.623Z,1025.15
2023-05-04T05:06:17.713Z,1025.14
2023-05-04T05:07:21.978Z,1025.14
2023-05-04T05:08:26.131Z,1025.13
2023-05-04T05:09:30.356Z,1025.13
2023-05-04T05:10:34.435Z,1025.12
2023-05-04T05:11:38.680Z,1025.11
2023-05-04T05:12:42.942Z,1025.12
2023-05-04T05:13:47.115Z,1025.11
2023-05-04T05:14:51.353Z,1025.11
2023-05-04T05:15:55.669Z,1025.08
2023-05-04T05:16:59.838Z,1025.11
2023-05-04T05:18:04.125Z,1025.10
2023-05-04T05:19:08.272Z,1025.11
2023-05-04T05:20:12.590Z,1025.13
2023-05-04T05:21:16.827Z,1025.15
2023-05-04T05:22:21.037Z,1025.14
2023-05-04T05:23:25.284Z,1025.12
2023-05-04T05:24:29.459Z,1025.08
2023-05-04T05:25:33.811Z,1025.08
2023-05-04T05:26:37.991Z,1025.03
2023-05-04T05:27:42.215Z,1025.00
2023-05-04T05:28:46.431Z,1025.00
2023-05-04T05:29:50.679Z,1024.98
2023-05-04T05:30:55.014Z,1024.99
2023-05-04T05:31:59.153Z,1024.93
2023-05-04T05:33:03.497Z,1024.91
2023-05-04T05:34:07.730Z,1024.91
2023-05-04T05:35:11.935Z,1024.87
2023-05-04T05:36:16.149Z,1024.87
2023-05-04T05:37:20.343Z,1024.90
2023-05-04T05:38:24.669Z,1024.90
2023-05-04T05:39:28.930Z,1024.89
2023-05-04T05:40:33.091Z,1024.89
2023-05-04T05:41:37.444Z,1024.89
2023-05-04T05:42:41.626Z,1024.87
2023-05-04T05:43:45.832Z,1024.86
2023-05-04T05:44:50.091Z,1024.84
2023-05-04T05:45:54.482Z,1024.87
2023-05-04T05:46:58.742Z,1024.89
2023-05-04T05:48:02.989Z,1024.93
2023-05-04T05:49:07.193Z,1024.95
2023-05-04T05:50:11.443Z,1024.96
2023-05-04T05:51:15.655Z,1024.94
2023-05-04T05:52:19.904Z,1024.94
2023-05-04T05:53:24.141Z,1024.90
2023-05-04T05:54:28.405Z,1024.92
2023-05-04T05:55:32.626Z,1024.90
2023-05-04T05:56:36.836Z,1024.88
2023-05-04T05:57:41.044Z,1024.93
2023-05-04T05:58:45.235Z,1024.93
2023-05-04T05:59:49.578Z,1024.95
2023-05-04T06:00:53.753Z,1024.96
2023-05-04T06:01:58.083Z,1024.99
2023-05-04T06:03:02.398Z,1025.01
2023-05-04T06:04:06.740Z,1025.01
2023-05-04T06:05:10.784Z,1025.00
2023-05-04T06:06:15.025Z,1024.99
2023-05-04T06:07:19.211Z,1024.93
2023-05-04T06:08:23.436Z,1024.92
2023-05-04T06:09:27.895Z,1024.90
2023-05-04T06:10:32.010Z,1024.91
2023-05-04T06:11:36.380Z,1024.88
2023-05-04T06:12:40.641Z,1024.87
2023-05-04T06:13:44.796Z,1024.87
2023-05-04T06:14:49.069Z,1024.84
2023-05-04T06:15:53.346Z,1024.82
2023-05-04T06:16:57.601Z,1024.83
2023-05-04T06:18:02.014Z,1024.83
2023-05-04T06:19:06.069Z,1024.84
2023-05-04T06:20:10.381Z,1024.85
2023-05-04T06:21:14.626Z,1024.83
2023-05-04T06:22:18.906Z,1024.84
2023-05-04T06:23:23.151Z,1024.84
2023-05-04T06:24:27.390Z,1024.80
2023-05-04T06:25:31.662Z,1024.77
2023-05-04T06:26:35.834Z,1024.74
2023-05-04T06:27:40.224Z,1024.74
2023-05-04T06:28:44.438Z,1024.76
2023-05-04T06:29:48.706Z,1024.73
2023-05-04T06:30:52.992Z,1024.70
2023-05-04T06:31:57.377Z,1024.69
2023-05-04T06:33:01.727Z,1024.71
2023-05-04T06:34:08.874Z,1024.72
2023-05-04T06:35:12.241Z,1024.68
2023-05-04T06:36:16.491Z,1024.68
2023-05-04T06:37:20.836Z,1024.69
2023-05-04T06:38:25.165Z,1024.72
2023-05-04T06:39:29.334Z,1024.70
2023-05-04T06:40:33.752Z,1024.74
2023-05-04T06:41:37.955Z,1024.73
2023-05-04T06:42:42.275Z,1024.71
2023-05-04T06:43:46.739Z,1024.70
2023-05-04T06:44:50.965Z,1024.72
2023-05-04T06:45:55.264Z,1024.70
2023-05-04T06:46:59.497Z,1024.67
2023-05-04T06:48:03.874Z,1024.61
2023-05-04T06:49:08.134Z,1024.58
2023-05-04T06:50:12.407Z,1024.52
2023-05-04T06:51:16.712Z,1024.53
2023-05-04T06:52:21.064Z,1024.54
2023-05-04T06:53:25.303Z,1024.57
2023-05-04T06:54:29.663Z,1024.55
2023-05-04T06:55:33.947Z,1024.52
2023-05-04T06:56:38.285Z,1024.50
2023-05-04T06:57:42.554Z,1024.49
2023-05-04T06:58:49.898Z,1024.45
2023-05-04T06:59:53.308Z,1024.46
2023-05-04T07:00:57.621Z,1024.44
2023-05-04T07:02:01.942Z,1024.40
2023-05-04T07:03:06.394Z,1024.39
2023-05-04T07:04:10.723Z,1024.39
2023-05-04T07:05:15.002Z,1024.39
2023-05-04T07:06:19.387Z,1024.37
2023-05-04T07:07:23.733Z,1024.35
2023-05-04T07:08:27.998Z,1024.28
2023-05-04T07:09:32.424Z,1024.26
2023-05-04T07:10:36.674Z,1024.25
2023-05-04T07:11:41.093Z,1024.22
2023-05-04T07:12:45.362Z,1024.20
2023-05-04T07:13:49.642Z,1024.20
2023-05-04T07:14:54.092Z,1024.21
2023-05-04T07:15:58.269Z,1024.23
2023-05-04T07:17:02.537Z,1024.25
2023-05-04T07:18:06.899Z,1024.23
2023-05-04T07:19:11.148Z,1024.24
2023-05-04T07:20:15.490Z,1024.21
2023-05-04T07:21:27.871Z,1024.25
2023-05-04T07:22:24.091Z,1024.23
2023-05-04T07:23:28.478Z,1024.22
2023-05-04T07:24:32.613Z,1024.27
2023-05-04T07:25:37.057Z,1024.32
2023-05-04T07:26:41.391Z,1024.36
2023-05-04T07:27:45.555Z,1024.35
2023-05-04T07:28:49.901Z,1024.35
2023-05-04T07:29:54.343Z,1024.39
2023-05-04T07:30:58.658Z,1024.41
2023-05-04T07:32:02.872Z,1024.43
2023-05-04T07:33:07.206Z,1024.43
2023-05-04T07:34:11.526Z,1024.43
2023-05-04T07:35:15.780Z,1024.46
2023-05-04T07:36:20.206Z,1024.46
2023-05-04T07:37:24.587Z,1024.45
2023-05-04T07:38:28.774Z,1024.45
2023-05-04T07:39:33.071Z,1024.41
2023-05-04T07:40:37.392Z,1024.36
2023-05-04T07:41:41.788Z,1024.30
2023-05-04T07:42:46.222Z,1024.22
2023-05-04T07:43:50.522Z,1024.17
2023-05-04T07:44:54.677Z,1024.13
2023-05-04T07:45:59.146Z,1024.09
2023-05-04T07:47:03.397Z,1024.05
2023-05-04T07:48:07.805Z,1024.02
2023-05-04T07:49:12.073Z,1023.98
2023-05-04T07:50:16.493Z,1023.93
2023-05-04T07:51:20.726Z,1023.91
2023-05-04T07:52:25.102Z,1023.94
2023-05-04T07:53:29.389Z,1023.88
2023-05-04T07:54:33.773Z,1023.92
2023-05-04T07:55:38.096Z,1023.91
2023-05-04T07:56:42.368Z,1023.94
2023-05-04T07:57:46.696Z,1023.99
2023-05-04T07:58:50.962Z,1024.01
2023-05-04T07:59:55.283Z,1024.04
2023-05-04T08:00:59.664Z,1024.01
2023-05-04T08:02:04.015Z,1024.00
2023-05-04T08:03:08.301Z,1024.00
2023-05-04T08:04:12.645Z,1024.00
2023-05-04T08:05:16.907Z,1023.98
2023-05-04T08:06:21.183Z,1023.98
2023-05-04T08:07:25.523Z,1023.97
2023-05-04T08:08:29.877Z,1023.91
2023-05-04T08:09:34.255Z,1023.82
2023-05-04T08:10:38.502Z,1023.74
2023-05-04T08:11:42.851Z,1023.74
2023-05-04T08:12:47.165Z,1023.75
2023-05-04T08:13:51.461Z,1023.76
2023-05-04T08:14:55.950Z,1023.78
2023-05-04T08:16:14.258Z,1023.78
2023-05-04T08:17:17.405Z,1023.78
2023-05-04T08:18:21.664Z,1023.78
2023-05-04T08:19:25.896Z,1023.79
2023-05-04T08:20:30.183Z,1023.79
2023-05-04T08:21:34.582Z,1023.78
2023-05-04T08:22:38.901Z,1023.79
2023-05-04T08:23:43.287Z,1023.79
2023-05-04T08:24:47.709Z,1023.78
2023-05-04T08:25:51.867Z,1023.79
2023-05-04T08:27:07.203Z,1023.82
2023-05-04T08:28:00.421Z,1023.81
2023-05-04T08:29:04.798Z,1023.81
2023-05-04T08:30:09.053Z,1023.80
2023-05-04T08:31:13.589Z,1023.80
2023-05-04T08:32:17.752Z,1023.76
2023-05-04T08:33:22.026Z,1023.75
2023-05-04T08:34:26.590Z,1023.67
2023-05-04T08:35:30.736Z,1023.62
2023-05-04T08:36:34.997Z,1023.65
2023-05-04T08:37:39.387Z,1023.65
2023-05-04T08:38:43.669Z,1023.67
2023-05-04T08:39:47.969Z,1023.72
2023-05-04T08:40:52.330Z,1023.74
2023-05-04T08:41:56.688Z,1023.75
2023-05-04T08:43:01.025Z,1023.75
2023-05-04T08:44:05.296Z,1023.74
2023-05-04T08:45:09.628Z,1023.73
2023-05-04T08:46:14.301Z,1023.74
2023-05-04T08:47:18.556Z,1023.76
2023-05-04T08:48:22.871Z,1023.75
2023-05-04T08:49:27.129Z,1023.75
2023-05-04T08:50:31.478Z,1023.71
2023-05-04T08:51:35.880Z,1023.69
2023-05-04T08:52:40.163Z,1023.65
2023-05-04T08:53:44.556Z,1023.64
2023-05-04T08:54:48.946Z,1023.65
2023-05-04T08:55:53.298Z,1023.65
2023-05-04T08:56:57.563Z,1023.64
2023-05-04T08:58:01.779Z,1023.62
2023-05-04T08:59:06.269Z,1023.61
2023-05-04T09:00:10.630Z,1023.62
2023-05-04T09:01:14.982Z,1023.62
2023-05-04T09:02:19.249Z,1023.63
2023-05-04T09:03:23.680Z,1023.64
2023-05-04T09:04:29.679Z,1023.61
2023-05-04T09:05:32.273Z,1023.52
2023-05-04T09:06:36.661Z,1023.43
2023-05-04T09:07:54.981Z,1023.41
2023-05-04T09:08:58.275Z,1023.39
2023-05-04T09:10:02.675Z,1023.43
2023-05-04T09:11:07.015Z,1023.45
2023-05-04T09:12:11.260Z,1023.44
2023-05-04T09:13:15.729Z,1023.45
2023-05-04T09:14:19.867Z,1023.46
2023-05-04T09:15:24.226Z,1023.48
2023-05-04T09:16:42.656Z,1023.48
2023-05-04T09:17:56.946Z,1023.44
2023-05-04T09:18:49.824Z,1023.45
2023-05-04T09:19:54.133Z,1023.46
2023-05-04T09:20:58.429Z,1023.43
2023-05-04T09:22:02.904Z,1023.45
2023-05-04T09:23:07.399Z,1023.43
2023-05-04T09:24:11.544Z,1023.45
2023-05-04T09:25:15.868Z,1023.47
2023-05-04T09:26:20.265Z,1023.48
2023-05-04T09:27:24.580Z,1023.45
2023-05-04T09:28:29.040Z,1023.46
2023-05-04T09:29:33.391Z,1023.45
2023-05-04T09:30:37.897Z,1023.40
2023-05-04T09:31:42.166Z,1023.40
2023-05-04T09:32:46.638Z,1023.40
2023-05-04T09:33:53.274Z,1023.41
2023-05-04T09:34:55.239Z,1023.43
2023-05-04T09:35:59.616Z,1023.44
2023-05-04T09:37:03.900Z,1023.47
2023-05-04T09:38:08.316Z,1023.49
2023-05-04T09:39:12.534Z,1023.49
2023-05-04T09:40:16.984Z,1023.48
2023-05-04T09:41:21.347Z,1023.48
2023-05-04T09:42:25.685Z,1023.46
2023-05-04T09:43:29.967Z,1023.46
2023-05-04T09:44:48.499Z,1023.45
2023-05-04T09:45:51.745Z,1023.41
2023-05-04T09:46:55.970Z,1023.37
2023-05-04T09:48:00.443Z,1023.35
2023-05-04T09:49:04.625Z,1023.35
2023-05-04T09:50:09.013Z,1023.34
2023-05-04T09:51:13.289Z,1023.36
2023-05-04T09:52:17.753Z,1023.35
2023-05-04T09:53:22.110Z,1023.35
2023-05-04T09:54:26.492Z,1023.33
2023-05-04T09:55:30.840Z,1023.31
2023-05-04T09:56:35.141Z,1023.33
2023-05-04T09:57:39.545Z,1023.31
2023-05-04T09:58:43.881Z,1023.34
2023-05-04T09:59:48.246Z,1023.34
2023-05-04T10:00:52.632Z,1023.36
2023-05-04T10:01:58.685Z,1023.34
2023-05-04T10:03:01.233Z,1023.34
2023-05-04T10:04:05.601Z,1023.29
2023-05-04T10:05:09.983Z,1023.28
2023-05-04T10:06:14.320Z,1023.28
2023-05-04T10:07:18.597Z,1023.24
2023-05-04T10:08:37.076Z,1023.20
2023-05-04T10:09:40.409Z,1023.18
2023-05-04T10:10:44.733Z,1023.12
2023-05-04T10:12:03.094Z,1023.11
2023-05-04T10:13:06.522Z,1023.12
2023-05-04T10:14:10.711Z,1023.10
2023-05-04T10:15:15.130Z,1023.10
2023-05-04T10:16:19.520Z,1023.11
2023-05-04T10:17:23.815Z,1023.11
2023-05-04T10:18:28.192Z,1023.09
2023-05-04T10:19:32.580Z,1023.07
2023-05-04T10:20:36.868Z,1023.05
2023-05-04T10:21:41.323Z,1023.02
2023-05-04T10:22:45.685Z,1023.01
2023-05-04T10:23:50.020Z,1023.00
2023-05-04T10:24:54.416Z,1022.97
2023-05-04T10:25:58.768Z,1022.97
2023-05-04T10:27:03.133Z,1022.99
2023-05-04T10:28:07.576Z,1023.00
2023-05-04T10:29:11.981Z,1023.00
2023-05-04T10:30:16.250Z,1023.02
2023-05-04T10:31:20.668Z,1023.00
2023-05-04T10:32:24.970Z,1022.94
2023-05-04T10:33:29.232Z,1022.89
2023-05-04T10:34:33.717Z,1022.86
2023-05-04T10:35:37.971Z,1022.80
2023-05-04T10:36:42.322Z,1022.79
2023-05-04T10:37:46.687Z,1022.79
2023-05-04T10:38:51.040Z,1022.79
2023-05-04T10:39:55.418Z,1022.79
2023-05-04T10:40:59.783Z,1022.81
2023-05-04T10:42:04.272Z,1022.75
2023-05-04T10:43:08.595Z,1022.71
2023-05-04T10:44:12.846Z,1022.72
2023-05-04T10:45:17.273Z,1022.66
2023-05-04T10:46:21.638Z,1022.58
2023-05-04T10:47:26.028Z,1022.58
2023-05-04T10:48:30.362Z,1022.56
2023-05-04T10:49:34.722Z,1022.54
2023-05-04T10:50:39.112Z,1022.55
2023-05-04T10:51:49.300Z,1022.53
2023-05-04T10:52:47.739Z,1022.50
2023-05-04T10:53:52.150Z,1022.46
2023-05-04T10:54:56.434Z,1022.42
2023-05-04T10:56:01.040Z,1022.41
2023-05-04T10:57:05.209Z,1022.42
2023-05-04T10:58:09.524Z,1022.40
2023-05-04T10:59:13.842Z,1022.39
2023-05-04T11:00:18.256Z,1022.40
2023-05-04T11:01:22.666Z,1022.41
2023-05-04T11:02:39.103Z,1022.38
2023-05-04T11:03:41.863Z,1022.33
2023-05-04T11:04:45.882Z,1022.26
2023-05-04T11:05:50.289Z,1022.27
2023-05-04T11:06:54.553Z,1022.26
2023-05-04T11:08:13.070Z,1022.24
2023-05-04T11:09:16.531Z,1022.31
2023-05-04T11:10:20.867Z,1022.33
2023-05-04T11:11:25.267Z,1022.32
2023-05-04T11:12:29.511Z,1022.28
2023-05-04T11:13:33.953Z,1022.25
2023-05-04T11:14:38.188Z,1022.26
2023-05-04T11:15:42.612Z,1022.26
2023-05-04T11:16:47.132Z,1022.27
2023-05-04T11:17:51.336Z,1022.25
2023-05-04T11:18:55.678Z,1022.25
2023-05-04T11:20:00.059Z,1022.25
2023-05-04T11:21:04.348Z,1022.17
2023-05-04T11:22:08.754Z,1022.11
2023-05-04T11:23:13.121Z,1022.13
2023-05-04T11:24:17.500Z,1022.11
2023-05-04T11:25:21.892Z,1022.12
2023-05-04T11:26:26.156Z,1022.10
2023-05-04T11:27:30.727Z,1022.10
2023-05-04T11:28:35.005Z,1022.09
2023-05-04T11:29:39.311Z,1022.06
2023-05-04T11:30:43.857Z,1022.01
2023-05-04T11:31:48.215Z,1021.98
2023-05-04T11:32:52.470Z,1021.99
2023-05-04T11:33:56.852Z,1021.99
2023-05-04T11:35:01.245Z,1022.00
2023-05-04T11:36:05.622Z,1022.01
2023-05-04T11:37:09.943Z,1022.02
2023-05-04T11:39:41.343Z,1022.05
2023-05-04T11:40:45.693Z,1022.05
2023-05-04T11:41:50.083Z,1022.03
2023-05-04T11:42:56.766Z,1021.96
2023-05-04T11:43:58.733Z,1021.93
2023-05-04T11:45:03.383Z,1021.91
2023-05-04T11:46:07.574Z,1021.93
2023-05-04T11:47:11.944Z,1021.88
2023-05-04T11:49:43.658Z,1021.79
2023-05-04T11:50:48.026Z,1021.78
2023-05-04T11:51:52.293Z,1021.75
2023-05-04T11:52:56.566Z,1021.74
2023-05-04T11:54:01.147Z,1021.69
2023-05-04T11:55:05.831Z,1021.70
2023-05-04T11:56:09.914Z,1021.73
2023-05-04T11:57:14.311Z,1021.67
2023-05-04T11:58:18.601Z,1021.66
2023-05-04T11:59:22.898Z,1021.63
2023-05-04T12:00:27.211Z,1021.66
2023-05-04T12:01:31.589Z,1021.66
2023-05-04T12:02:36.074Z,1021.63
2023-05-04T12:03:53.336Z,1021.67
2023-05-04T12:04:44.721Z,1021.65
2023-05-04T12:05:49.069Z,1021.71
2023-05-04T12:06:53.559Z,1021.65
2023-05-04T12:07:57.968Z,1021.66
2023-05-04T12:09:02.230Z,1021.65
2023-05-04T12:10:06.607Z,1021.65
2023-05-04T12:11:10.935Z,1021.66
2023-05-04T12:12:15.306Z,1021.61
2023-05-04T12:13:19.905Z,1021.62
2023-05-04T12:14:24.106Z,1021.63
2023-05-04T12:15:28.510Z,1021.63
2023-05-04T12:16:32.954Z,1021.62
2023-05-04T12:17:37.258Z,1021.61
2023-05-04T12:18:41.699Z,1021.55
2023-05-04T12:19:46.049Z,1021.55
2023-05-04T12:20:50.335Z,1021.58
2023-05-04T12:22:08.705Z,1021.56
2023-05-04T12:23:12.085Z,1021.55
2023-05-04T12:24:16.495Z,1021.56
2023-05-04T12:25:20.778Z,1021.52
2023-05-04T12:26:25.177Z,1021.54
2023-05-04T12:27:29.468Z,1021.50
2023-05-04T12:28:33.823Z,1021.46
2023-05-04T12:29:38.246Z,1021.48
2023-05-04T12:30:42.622Z,1021.47
2023-05-04T12:31:46.955Z,1021.50
2023-05-04T12:32:51.276Z,1021.45
2023-05-04T12:33:55.592Z,1021.44
2023-05-04T12:34:59.951Z,1021.41
2023-05-04T12:36:10.492Z,1021.39
2023-05-04T12:37:13.428Z,1021.34
2023-05-04T12:38:17.706Z,1021.31
2023-05-04T12:39:22.174Z,1021.29
2023-05-04T12:40:28.576Z,1021.27
2023-05-04T12:41:30.806Z,1021.30
2023-05-04T12:42:35.265Z,1021.27
2023-05-04T12:43:39.574Z,1021.28
2023-05-04T12:44:44.126Z,1021.25
2023-05-04T12:45:48.299Z,1021.35
2023-05-04T12:46:52.649Z,1021.35
2023-05-04T12:47:57.110Z,1021.35
2023-05-04T12:49:01.527Z,1021.33
2023-05-04T12:50:05.841Z,1021.30
2023-05-04T12:51:10.265Z,1021.29
2023-05-04T12:52:14.638Z,1021.26
2023-05-04T12:53:18.942Z,1021.23
2023-05-04T12:54:23.362Z,1021.24
2023-05-04T12:55:27.744Z,1021.22
2023-05-04T12:56:32.043Z,1021.24
2023-05-04T12:57:36.453Z,1021.26
2023-05-04T12:58:40.839Z,1021.27
2023-05-04T12:59:45.154Z,1021.24
2023-05-04T13:00:49.607Z,1021.25
2023-05-04T13:01:53.981Z,1021.33
2023-05-04T13:02:58.424Z,1021.25
2023-05-04T13:04:02.571Z,1021.22
2023-05-04T13:05:07.279Z,1021.20
2023-05-04T13:06:11.304Z,1021.16
2023-05-04T13:07:15.767Z,1021.13
2023-05-04T13:08:20.143Z,1021.12